Hamilton, Texas
Current Conditions -  °F | °C
As of 10:35 PM on Tuesday 21 Oct 2014 (Local Time) from KMNZ Reporting Station
Clear Clear  
Wind Chill: 62°   Ceiling: Unl
Heat Index: 62°   Visibility: 10mi
Dew Point: 49°   Wind: 3mph
Humidity: 64%   Direction: 150°SSE
Pressure: 30.09"   Gusts: NA
Location:  31.7°N, 98.12°W
Report Text: KMNZ 220335Z AUTO 15003KT 10SM CLR 16/10 A3009 RMK AO2 T01640095
Loading
Personal Weather Stations






























Interactive Weather Map
Tropical Storm Tracking
New forecast layout! Learn more

10-Day Weather Forecast

Advertisements
Track Severe Weather on mobile